createdAt,value
2023-05-15T00:00:57.733Z,14.60
2023-05-15T00:03:31.651Z,14.20
2023-05-15T00:06:02.743Z,14.10
2023-05-15T00:08:33.695Z,14.10
2023-05-15T00:11:07.257Z,14.00
2023-05-15T00:13:38.648Z,14.00
2023-05-15T00:16:10.344Z,13.90
2023-05-15T00:18:41.249Z,13.90
2023-05-15T00:21:12.207Z,13.80
2023-05-15T00:23:43.204Z,13.90
2023-05-15T00:26:17.096Z,13.80
2023-05-15T00:28:48.032Z,13.80
2023-05-15T00:31:19.076Z,13.70
2023-05-15T00:33:50.452Z,13.70
2023-05-15T00:36:22.117Z,13.70
2023-05-15T00:38:54.035Z,13.60
2023-05-15T00:41:32.179Z,13.60
2023-05-15T00:44:04.788Z,13.50
2023-05-15T00:46:38.184Z,13.50
2023-05-15T00:49:13.670Z,13.60
2023-05-15T00:51:45.133Z,13.60
2023-05-15T00:54:16.411Z,13.60
2023-05-15T00:56:52.068Z,13.60
2023-05-15T00:59:24.858Z,13.50
2023-05-15T01:01:55.838Z,13.50
2023-05-15T01:04:26.872Z,13.50
2023-05-15T01:06:58.103Z,13.50
2023-05-15T01:09:31.414Z,13.50
2023-05-15T01:12:07.819Z,13.40
2023-05-15T01:14:38.936Z,13.50
2023-05-15T01:17:09.937Z,13.40
2023-05-15T01:19:42.401Z,13.30
2023-05-15T01:22:36.703Z,13.20
2023-05-15T01:25:37.472Z,13.20
2023-05-15T01:28:15.391Z,13.20
2023-05-15T01:30:47.616Z,13.20
2023-05-15T01:33:23.826Z,13.10
2023-05-15T01:36:02.006Z,13.10
2023-05-15T01:38:39.774Z,13.10
2023-05-15T01:41:18.229Z,13.00
2023-05-15T01:43:59.900Z,13.00
2023-05-15T01:46:34.027Z,12.90
2023-05-15T01:49:05.627Z,12.90
2023-05-15T01:51:36.954Z,13.00
2023-05-15T01:54:09.691Z,13.00
2023-05-15T01:56:43.346Z,13.00
2023-05-15T01:59:17.441Z,13.00
2023-05-15T02:01:48.940Z,12.90
2023-05-15T02:04:21.795Z,12.90
2023-05-15T02:06:53.375Z,12.90
2023-05-15T02:09:25.018Z,12.80
2023-05-15T02:11:56.863Z,12.80
2023-05-15T02:14:31.970Z,12.80
2023-05-15T02:17:05.703Z,12.80
2023-05-15T02:19:36.651Z,12.70
2023-05-15T02:22:08.022Z,12.60
2023-05-15T02:24:38.911Z,12.60
2023-05-15T02:27:20.449Z,12.60
2023-05-15T02:30:06.308Z,12.50
2023-05-15T02:32:52.476Z,12.50
2023-05-15T02:35:33.891Z,12.50
2023-05-15T02:38:10.815Z,12.50
2023-05-15T02:40:43.239Z,12.40
2023-05-15T02:43:15.446Z,12.40
2023-05-15T02:45:49.528Z,12.40
2023-05-15T02:48:21.233Z,12.40
2023-05-15T02:50:52.513Z,12.40
2023-05-15T02:53:23.506Z,12.40
2023-05-15T02:55:54.778Z,12.30
2023-05-15T02:58:29.066Z,12.30
2023-05-15T03:01:02.912Z,12.30
2023-05-15T03:03:33.859Z,12.30
2023-05-15T03:06:04.803Z,12.30
2023-05-15T03:08:37.755Z,12.20
2023-05-15T03:11:08.739Z,12.30
2023-05-15T03:13:39.826Z,12.20
2023-05-15T03:16:13.293Z,12.20
2023-05-15T03:18:44.385Z,12.20
2023-05-15T03:21:16.170Z,12.10
2023-05-15T03:23:47.081Z,12.50
2023-05-15T03:26:19.804Z,12.20
2023-05-15T03:28:51.145Z,12.20
2023-05-15T03:31:24.722Z,12.20
2023-05-15T03:33:55.696Z,12.30
2023-05-15T03:36:26.568Z,12.40
2023-05-15T03:38:57.628Z,12.60
2023-05-15T03:41:31.238Z,12.70
2023-05-15T03:44:02.070Z,12.90
2023-05-15T03:46:35.648Z,13.00
2023-05-15T03:49:06.787Z,13.10
2023-05-15T03:51:38.089Z,13.10
2023-05-15T03:54:09.323Z,13.20
2023-05-15T03:56:40.502Z,13.20
2023-05-15T03:59:11.432Z,13.30
2023-05-15T04:02:02.613Z,13.40
2023-05-15T04:04:35.608Z,13.40
2023-05-15T04:07:07.244Z,13.40
2023-05-15T04:09:38.865Z,13.40
2023-05-15T04:12:10.220Z,13.40
2023-05-15T04:14:41.360Z,13.50
2023-05-15T04:17:14.779Z,13.50
2023-05-15T04:19:46.054Z,13.50
2023-05-15T04:22:16.877Z,13.60
2023-05-15T04:24:47.868Z,13.70
2023-05-15T04:27:19.004Z,13.70
2023-05-15T04:29:49.810Z,13.80
2023-05-15T04:32:23.331Z,13.80
2023-05-15T04:34:54.300Z,13.90
2023-05-15T04:37:25.591Z,14.00
2023-05-15T04:39:56.407Z,14.00
2023-05-15T04:42:27.268Z,14.10
2023-05-15T04:44:58.158Z,14.10
2023-05-15T04:47:31.737Z,14.20
2023-05-15T04:50:03.020Z,14.30
2023-05-15T04:52:33.955Z,14.30
2023-05-15T04:55:04.928Z,14.30
2023-05-15T04:57:35.809Z,14.20
2023-05-15T05:00:10.399Z,14.30
2023-05-15T05:02:44.533Z,14.20
2023-05-15T05:05:19.596Z,14.20
2023-05-15T05:07:52.368Z,14.30
2023-05-15T05:10:23.218Z,14.40
2023-05-15T05:12:54.138Z,14.40
2023-05-15T05:15:25.115Z,14.50
2023-05-15T05:18:01.314Z,14.50
2023-05-15T05:20:32.502Z,14.50
2023-05-15T05:23:03.334Z,14.50
2023-05-15T05:25:35.181Z,14.50
2023-05-15T05:28:06.370Z,14.50
2023-05-15T05:30:37.459Z,14.50
2023-05-15T05:33:18.596Z,14.60
2023-05-15T05:35:49.794Z,14.60
2023-05-15T05:38:20.636Z,14.60
2023-05-15T05:40:51.716Z,14.60
2023-05-15T05:43:22.883Z,14.70
2023-05-15T05:45:53.748Z,14.70
2023-05-15T05:48:27.263Z,14.60
2023-05-15T05:50:58.507Z,14.60
2023-05-15T05:53:29.352Z,14.60
2023-05-15T05:56:00.328Z,14.60
2023-05-15T05:58:31.441Z,14.70
2023-05-15T06:01:02.414Z,14.80
2023-05-15T06:03:39.347Z,14.90
2023-05-15T06:06:10.302Z,14.90
2023-05-15T06:08:41.177Z,14.80
2023-05-15T06:11:12.055Z,14.90
2023-05-15T06:13:43.573Z,14.80
2023-05-15T06:16:14.521Z,14.80
2023-05-15T06:18:47.945Z,14.70
2023-05-15T06:21:18.912Z,14.60
2023-05-15T06:23:49.728Z,14.50
2023-05-15T06:26:22.080Z,14.50
2023-05-15T06:28:52.949Z,14.50
2023-05-15T06:31:24.132Z,14.50
2023-05-15T06:33:59.990Z,14.60
2023-05-15T06:36:30.766Z,14.70
2023-05-15T06:39:04.389Z,14.70
2023-05-15T06:41:36.126Z,14.70
2023-05-15T06:44:07.070Z,14.70
2023-05-15T06:46:39.476Z,14.70
2023-05-15T06:49:13.278Z,14.70
2023-05-15T06:51:44.158Z,14.80
2023-05-15T06:54:15.370Z,14.80
2023-05-15T06:56:46.210Z,14.90
2023-05-15T06:59:17.273Z,15.00
2023-05-15T07:01:48.173Z,15.00
2023-05-15T07:04:21.698Z,15.00
2023-05-15T07:06:52.635Z,15.30
2023-05-15T07:09:23.443Z,15.50
2023-05-15T07:11:54.331Z,15.80
2023-05-15T07:14:25.156Z,16.50
2023-05-15T07:16:56.089Z,16.90
2023-05-15T07:19:30.160Z,17.00
2023-05-15T07:22:03.211Z,16.90
2023-05-15T07:24:34.448Z,16.80
2023-05-15T07:27:05.334Z,16.80
2023-05-15T07:29:36.108Z,16.60
2023-05-15T07:32:07.598Z,16.40
2023-05-15T07:34:42.459Z,16.20
2023-05-15T07:37:14.908Z,16.40
2023-05-15T07:39:47.630Z,16.30
2023-05-15T07:42:18.476Z,16.20
2023-05-15T07:44:49.642Z,16.20
2023-05-15T07:47:20.880Z,16.10
2023-05-15T07:49:54.285Z,16.10
2023-05-15T07:52:25.114Z,16.10
2023-05-15T07:54:56.108Z,16.10
2023-05-15T07:57:27.041Z,15.90
2023-05-15T07:59:57.970Z,15.80
2023-05-15T08:02:31.766Z,15.80
2023-05-15T08:05:05.549Z,15.70
2023-05-15T08:07:36.425Z,15.60
2023-05-15T08:10:08.005Z,15.60
2023-05-15T08:12:38.953Z,15.60
2023-05-15T08:15:11.370Z,15.70
2023-05-15T08:17:42.366Z,15.80
2023-05-15T08:20:16.492Z,15.80
2023-05-15T08:22:47.550Z,15.90
2023-05-15T08:25:18.558Z,16.00
2023-05-15T08:27:49.374Z,16.00
2023-05-15T08:30:21.388Z,16.20
2023-05-15T08:32:52.649Z,16.40
2023-05-15T08:35:26.445Z,16.50
2023-05-15T08:37:58.038Z,16.80
2023-05-15T08:43:06.917Z,17.00
2023-05-15T08:45:39.473Z,16.90
2023-05-15T08:48:15.275Z,16.90
2023-05-15T08:50:52.835Z,16.90
2023-05-15T08:53:24.390Z,17.10
2023-05-15T08:55:55.497Z,17.10
2023-05-15T08:58:28.525Z,17.30
2023-05-15T09:01:01.562Z,17.50
2023-05-15T09:03:32.714Z,17.60
2023-05-15T09:06:08.000Z,17.70
2023-05-15T09:08:39.631Z,17.90
2023-05-15T09:11:11.314Z,18.00
2023-05-15T09:13:42.170Z,18.20
2023-05-15T09:16:13.432Z,18.30
2023-05-15T09:18:45.026Z,18.30
2023-05-15T09:21:29.177Z,18.30
2023-05-15T09:24:19.964Z,18.30
2023-05-15T09:27:04.733Z,18.50
2023-05-15T09:29:37.287Z,18.70
2023-05-15T09:32:10.755Z,19.00
2023-05-15T09:34:43.095Z,19.10
2023-05-15T09:37:31.393Z,19.20
2023-05-15T09:40:12.214Z,19.20
2023-05-15T09:42:43.125Z,19.40
2023-05-15T09:45:21.068Z,19.40
2023-05-15T09:47:52.178Z,19.50
2023-05-15T09:50:28.184Z,19.50
2023-05-15T09:53:05.244Z,19.40
2023-05-15T09:55:37.384Z,19.40
2023-05-15T09:58:12.878Z,19.30
2023-05-15T10:00:47.609Z,19.30
2023-05-15T10:03:21.504Z,18.90
2023-05-15T10:05:52.404Z,19.10
2023-05-15T10:08:32.034Z,19.00
2023-05-15T10:11:07.436Z,19.10
2023-05-15T10:13:39.672Z,19.30
2023-05-15T10:16:10.854Z,19.40
2023-05-15T10:18:43.337Z,19.50
2023-05-15T10:21:15.321Z,19.80
2023-05-15T10:23:50.597Z,19.60
2023-05-15T10:26:26.502Z,19.60
2023-05-15T10:28:59.178Z,19.70
2023-05-15T10:31:32.021Z,19.80
2023-05-15T10:34:03.776Z,20.00
2023-05-15T10:36:35.320Z,20.10
2023-05-15T10:39:10.655Z,20.20
2023-05-15T10:41:42.988Z,20.10
2023-05-15T10:44:18.799Z,20.10
2023-05-15T10:46:50.511Z,20.10
2023-05-15T10:49:26.478Z,20.10
2023-05-15T10:51:57.441Z,20.10
2023-05-15T10:54:31.551Z,20.40
2023-05-15T10:57:06.978Z,20.40
2023-05-15T10:59:38.033Z,20.60
2023-05-15T11:02:23.621Z,20.80
2023-05-15T11:05:02.036Z,20.90
2023-05-15T11:07:32.929Z,20.80
2023-05-15T11:10:42.159Z,21.00
2023-05-15T11:13:13.399Z,21.10
2023-05-15T11:15:45.665Z,21.10
2023-05-15T11:18:19.554Z,21.20
2023-05-15T11:21:11.507Z,21.30
2023-05-15T11:23:44.178Z,21.30
2023-05-15T11:26:20.222Z,21.40
2023-05-15T11:28:54.751Z,21.50
2023-05-15T11:31:33.111Z,21.40
2023-05-15T11:34:08.126Z,21.50
2023-05-15T11:36:41.609Z,21.30
2023-05-15T11:39:13.541Z,21.60
2023-05-15T11:41:47.236Z,21.80
2023-05-15T11:44:23.186Z,21.50
2023-05-15T11:46:58.021Z,21.30
2023-05-15T11:49:29.793Z,21.20
2023-05-15T11:52:01.235Z,21.30
2023-05-15T11:54:32.970Z,21.40
2023-05-15T11:57:10.077Z,21.60
2023-05-15T11:59:41.100Z,21.70
2023-05-15T12:02:12.521Z,21.60
2023-05-15T12:04:43.385Z,21.60
2023-05-15T12:07:14.832Z,21.60
2023-05-15T12:09:45.785Z,21.70
2023-05-15T12:12:19.211Z,21.90
2023-05-15T12:14:50.035Z,21.90
2023-05-15T12:17:21.544Z,21.90
2023-05-15T12:19:54.219Z,21.80
2023-05-15T12:22:26.554Z,21.80
2023-05-15T12:25:01.740Z,21.90
2023-05-15T12:27:35.857Z,22.00
2023-05-15T12:30:08.171Z,22.20
2023-05-15T12:32:40.604Z,22.30
2023-05-15T12:35:13.216Z,22.30
2023-05-15T12:37:45.000Z,22.40
2023-05-15T12:40:19.558Z,22.10
2023-05-15T12:42:56.425Z,22.00
2023-05-15T12:45:28.854Z,22.10
2023-05-15T12:48:02.025Z,22.20
2023-05-15T12:50:38.202Z,22.20
2023-05-15T12:53:09.029Z,22.30
2023-05-15T12:55:40.092Z,22.20
2023-05-15T12:58:15.353Z,22.00
2023-05-15T13:00:51.089Z,21.80
2023-05-15T13:03:24.574Z,22.00
2023-05-15T13:05:55.526Z,22.30
2023-05-15T13:08:26.788Z,22.20
2023-05-15T13:11:00.608Z,22.20
2023-05-15T13:13:48.812Z,22.40
2023-05-15T13:16:24.659Z,22.10
2023-05-15T13:18:56.117Z,22.00
2023-05-15T13:21:29.863Z,21.80
2023-05-15T13:24:00.921Z,21.70
2023-05-15T13:26:31.856Z,21.80
2023-05-15T13:29:05.817Z,21.70
2023-05-15T13:31:38.783Z,21.50
2023-05-15T13:34:10.069Z,21.30
2023-05-15T13:36:41.186Z,21.00
2023-05-15T13:39:12.031Z,21.10
2023-05-15T13:41:42.937Z,21.40
2023-05-15T13:44:16.395Z,21.40
2023-05-15T13:46:47.431Z,21.30
2023-05-15T13:49:18.316Z,21.30
2023-05-15T13:51:49.147Z,21.40
2023-05-15T13:54:21.232Z,21.30
2023-05-15T13:56:52.379Z,21.40
2023-05-15T13:59:25.947Z,21.60
2023-05-15T14:01:57.017Z,21.60
2023-05-15T14:04:28.374Z,21.70
2023-05-15T14:07:02.360Z,21.70
2023-05-15T14:09:33.539Z,21.80
2023-05-15T14:12:04.484Z,22.00
2023-05-15T14:14:38.133Z,21.80
2023-05-15T14:17:09.275Z,21.70
2023-05-15T14:19:40.560Z,21.50
2023-05-15T14:22:11.472Z,21.20
2023-05-15T14:24:42.322Z,21.60
2023-05-15T14:27:13.208Z,21.30
2023-05-15T14:29:48.557Z,21.40
2023-05-15T14:32:20.254Z,21.40
2023-05-15T14:34:51.228Z,21.50
2023-05-15T14:37:22.123Z,21.40
2023-05-15T14:39:53.012Z,21.60
2023-05-15T14:42:24.339Z,21.30
2023-05-15T14:44:57.771Z,21.20
2023-05-15T14:47:30.208Z,21.10
2023-05-15T14:50:01.245Z,21.00
2023-05-15T14:52:32.265Z,21.10
2023-05-15T14:57:47.715Z,21.30
2023-05-15T15:00:21.540Z,21.30
2023-05-15T15:02:52.672Z,21.10
2023-05-15T15:05:23.879Z,20.90
2023-05-15T15:08:03.820Z,20.60
2023-05-15T15:10:35.844Z,20.20
2023-05-15T15:13:07.669Z,20.10
2023-05-15T15:15:41.370Z,19.90
2023-05-15T15:18:12.572Z,19.90
2023-05-15T15:20:44.866Z,20.00
2023-05-15T15:23:15.914Z,20.00
2023-05-15T15:25:46.888Z,20.10
2023-05-15T15:28:17.723Z,20.10
2023-05-15T15:30:51.160Z,20.00
2023-05-15T15:33:21.946Z,19.90
2023-05-15T15:35:52.783Z,19.90
2023-05-15T15:38:23.854Z,20.10
2023-05-15T15:40:54.672Z,20.10
2023-05-15T15:43:25.725Z,20.10
2023-05-15T15:45:59.586Z,20.10
2023-05-15T15:48:30.492Z,20.10
2023-05-15T15:51:01.399Z,20.00
2023-05-15T15:53:34.171Z,19.90
2023-05-15T15:56:05.211Z,19.90
2023-05-15T15:58:36.358Z,19.80
2023-05-15T16:01:10.119Z,19.70
2023-05-15T16:03:41.011Z,19.70
2023-05-15T16:06:12.476Z,19.70
2023-05-15T16:08:43.320Z,19.70
2023-05-15T16:11:14.137Z,19.70
2023-05-15T16:13:45.007Z,19.70
2023-05-15T16:16:18.945Z,19.80
2023-05-15T16:18:50.344Z,19.80
2023-05-15T16:21:21.473Z,19.70
2023-05-15T16:23:52.313Z,19.90
2023-05-15T16:26:23.540Z,19.60
2023-05-15T16:28:54.627Z,19.50
2023-05-15T16:31:28.228Z,19.50
2023-05-15T16:34:02.826Z,19.50
2023-05-15T16:36:34.741Z,19.50
2023-05-15T16:39:05.867Z,19.50
2023-05-15T16:41:36.709Z,19.50
2023-05-15T16:44:11.068Z,19.50
2023-05-15T16:46:44.589Z,19.60
2023-05-15T16:49:15.424Z,19.50
2023-05-15T16:51:46.358Z,19.40
2023-05-15T16:54:22.047Z,19.30
2023-05-15T16:56:52.854Z,19.20
2023-05-15T16:59:23.721Z,19.10
2023-05-15T17:01:58.638Z,19.00
2023-05-15T17:04:33.061Z,19.00
2023-05-15T17:07:04.790Z,18.90
2023-05-15T17:09:38.246Z,18.90
2023-05-15T17:12:10.289Z,19.20
2023-05-15T17:14:41.169Z,18.70
2023-05-15T17:17:14.689Z,18.70
2023-05-15T17:19:45.579Z,18.70
2023-05-15T17:22:16.873Z,18.70
2023-05-15T17:24:51.004Z,18.60
2023-05-15T17:27:23.000Z,18.70
2023-05-15T17:29:53.970Z,18.70
2023-05-15T17:32:27.701Z,18.70
2023-05-15T17:34:58.693Z,18.60
2023-05-15T17:37:29.584Z,18.50
2023-05-15T17:40:00.431Z,18.40
2023-05-15T17:42:31.363Z,18.20
2023-05-15T17:45:02.733Z,18.10
2023-05-15T17:47:36.219Z,18.00
2023-05-15T17:50:07.894Z,18.00
2023-05-15T17:52:39.739Z,18.00
2023-05-15T17:55:14.033Z,18.00
2023-05-15T17:57:44.969Z,18.00
2023-05-15T18:00:17.880Z,18.00
2023-05-15T18:02:51.259Z,17.90
2023-05-15T18:05:22.118Z,17.80
2023-05-15T18:07:53.118Z,17.80
2023-05-15T18:10:24.186Z,17.60
2023-05-15T18:12:55.032Z,17.60
2023-05-15T18:15:26.221Z,17.60
2023-05-15T18:17:59.873Z,17.50
2023-05-15T18:20:30.797Z,17.50
2023-05-15T18:23:01.618Z,17.50
2023-05-15T18:25:36.769Z,17.60
2023-05-15T18:28:08.863Z,17.30
2023-05-15T18:30:39.862Z,17.60
2023-05-15T18:33:13.304Z,17.10
2023-05-15T18:35:44.151Z,17.10
2023-05-15T18:38:15.006Z,17.10
2023-05-15T18:40:49.096Z,17.00
2023-05-15T18:43:20.057Z,17.00
2023-05-15T18:45:51.098Z,16.90
2023-05-15T18:48:26.176Z,16.90
2023-05-15T18:50:57.177Z,16.80
2023-05-15T18:53:28.376Z,16.70
2023-05-15T18:55:59.195Z,16.70
2023-05-15T18:58:30.043Z,16.70
2023-05-15T19:01:00.855Z,16.60
2023-05-15T19:03:38.249Z,16.60
2023-05-15T19:06:09.183Z,16.60
2023-05-15T19:08:40.113Z,16.80
2023-05-15T19:11:12.420Z,16.50
2023-05-15T19:13:43.271Z,16.50
2023-05-15T19:16:14.149Z,16.50
2023-05-15T19:18:47.718Z,16.50
2023-05-15T19:21:21.112Z,16.50
2023-05-15T19:23:52.992Z,16.50
2023-05-15T19:26:24.375Z,16.50
2023-05-15T19:28:55.660Z,16.50
2023-05-15T19:31:31.263Z,16.40
2023-05-15T19:34:05.635Z,16.30
2023-05-15T19:36:36.466Z,16.20
2023-05-15T19:39:07.438Z,16.20
2023-05-15T19:41:38.227Z,16.20
2023-05-15T19:44:11.340Z,16.20
2023-05-15T19:46:42.737Z,16.10
2023-05-15T19:49:16.357Z,16.40
2023-05-15T19:51:47.170Z,16.10
2023-05-15T19:54:18.867Z,15.90
2023-05-15T19:56:49.747Z,15.90
2023-05-15T19:59:23.565Z,15.90
2023-05-15T20:01:54.568Z,15.90
2023-05-15T20:04:28.050Z,15.80
2023-05-15T20:06:58.857Z,15.70
2023-05-15T20:09:30.066Z,15.70
2023-05-15T20:12:03.367Z,15.60
2023-05-15T20:14:35.005Z,15.60
2023-05-15T20:17:06.058Z,15.60
2023-05-15T20:19:39.593Z,15.60
2023-05-15T20:22:10.483Z,15.40
2023-05-15T20:24:41.318Z,15.20
2023-05-15T20:27:12.152Z,15.20
2023-05-15T20:29:42.960Z,15.10
2023-05-15T20:32:14.071Z,15.10
2023-05-15T20:34:48.412Z,15.10
2023-05-15T20:37:19.455Z,15.10
2023-05-15T20:39:50.708Z,15.10
2023-05-15T20:42:21.524Z,15.00
2023-05-15T20:44:53.137Z,15.00
2023-05-15T20:47:24.140Z,15.00
2023-05-15T20:49:57.652Z,15.00
2023-05-15T20:52:31.433Z,15.10
2023-05-15T20:55:02.554Z,14.90
2023-05-15T20:57:33.422Z,15.00
2023-05-15T21:00:05.913Z,15.00
2023-05-15T21:02:36.765Z,15.10
2023-05-15T21:05:11.483Z,15.10
2023-05-15T21:07:42.403Z,15.00
2023-05-15T21:10:13.958Z,15.00
2023-05-15T21:12:45.001Z,15.00
2023-05-15T21:15:15.980Z,15.00
2023-05-15T21:17:46.967Z,14.90
2023-05-15T21:20:20.666Z,15.00
2023-05-15T21:22:51.528Z,14.80
2023-05-15T21:25:22.717Z,14.80
2023-05-15T21:27:53.544Z,14.80
2023-05-15T21:30:24.922Z,14.80
2023-05-15T21:32:56.143Z,14.70
2023-05-15T21:35:31.845Z,14.80
2023-05-15T21:38:03.569Z,14.80
2023-05-15T21:40:35.073Z,14.70
2023-05-15T21:43:05.998Z,14.70
2023-05-15T21:45:36.921Z,14.80
2023-05-15T21:48:08.155Z,14.80
2023-05-15T21:50:41.890Z,14.80
2023-05-15T21:53:12.716Z,14.80
2023-05-15T21:55:44.401Z,14.80
2023-05-15T21:58:15.314Z,14.80
2023-05-15T22:00:46.317Z,14.90
2023-05-15T22:03:18.279Z,14.90
2023-05-15T22:05:52.999Z,14.80
2023-05-15T22:08:24.025Z,14.90
2023-05-15T22:10:56.394Z,14.80
2023-05-15T22:13:27.224Z,14.90
2023-05-15T22:15:58.110Z,14.80
2023-05-15T22:18:29.119Z,14.80
2023-05-15T22:21:03.239Z,14.80
2023-05-15T22:23:34.320Z,14.80
2023-05-15T22:26:05.289Z,14.80
2023-05-15T22:28:36.105Z,14.80
2023-05-15T22:31:07.491Z,14.90
2023-05-15T22:33:41.420Z,14.90
2023-05-15T22:36:15.018Z,14.90
2023-05-15T22:38:45.857Z,14.90
2023-05-15T22:41:16.774Z,14.70
2023-05-15T22:43:47.641Z,14.60
2023-05-15T22:46:18.902Z,14.50
2023-05-15T22:48:49.730Z,14.50
2023-05-15T22:51:23.972Z,14.50
2023-05-15T22:53:54.878Z,14.50
2023-05-15T22:56:26.576Z,14.40
2023-05-15T22:58:57.413Z,14.40
2023-05-15T23:01:30.001Z,14.40
2023-05-15T23:04:00.955Z,14.40
2023-05-15T23:06:34.718Z,14.40
2023-05-15T23:09:05.911Z,14.40
2023-05-15T23:11:37.948Z,14.40
2023-05-15T23:14:09.533Z,14.20
2023-05-15T23:16:40.421Z,14.20
2023-05-15T23:19:11.448Z,14.20
2023-05-15T23:21:44.889Z,14.00
2023-05-15T23:24:16.304Z,13.90
2023-05-15T23:26:47.113Z,13.70
2023-05-15T23:29:17.932Z,13.60
2023-05-15T23:31:49.156Z,13.40
2023-05-15T23:34:20.194Z,13.40
2023-05-15T23:36:53.685Z,13.30
2023-05-15T23:39:24.532Z,13.20
2023-05-15T23:41:55.738Z,12.90
2023-05-15T23:44:26.749Z,12.90
2023-05-15T23:46:57.657Z,13.00
2023-05-15T23:49:28.617Z,12.90
2023-05-15T23:52:05.101Z,12.90
2023-05-15T23:54:36.028Z,12.80
2023-05-15T23:57:10.033Z,12.80
2023-05-15T23:59:40.991Z,12.70
